Flight Track Log - Related Links

Times and Time Zones

All times are in EDT time to prevent confusion due to time zone crossing. See the CTL13 flight status page for this flight to view local times or setup timezone preferences in your user account.


Time Position Orientation Groundspeed Altitude Reporting Facility
EDT Latitude Longitude Course Direction KTS MPH feet Rate Location/Type
Thu 10:07:09 PM 41.8000 -87.7167 66° East 139 160 1,200  Level Chicago TRACON
Thu 10:08:03 PM 41.8167 -87.6667 66° East 149 171 1,900 650 Climbing Chicago TRACON
Thu 10:09:09 PM 41.8333 -87.6167 66° East 159 183 2,500 500 Climbing Chicago TRACON
Thu 10:10:03 PM 41.8333 -87.5667 90° East 160 184 2,900 263 Climbing Chicago TRACON
Thu 10:11:03 PM 41.8333 -87.5000 90° East 169 194 3,000 365 Climbing Chicago TRACON
Thu 10:11:58 PM 41.8333 -87.4500 90° East 160 184 3,600 545 Climbing Chicago TRACON
Thu 10:13:04 PM 41.8167 -87.3833 109° East 158 182 4,100 409 Climbing Chicago TRACON
Thu 10:14:10 PM 41.8033 -87.3358 111° Southeast 160 184 4,500 375 Climbing Chicago Center
Thu 10:15:12 PM 41.7900 -87.2767 107° East 163 188 4,900 195 Climbing Chicago Center
Thu 10:16:13 PM 41.7878 -87.2028 92° East 168 193 4,900 49 Level Chicago Center
Thu 10:17:14 PM 41.7914 -87.1358 86° East 179 206 5,000 49 Climbing Chicago Center
Thu 10:18:16 PM 41.7989 -87.0728 81° East 174 200 5,000  Level Chicago Center
Thu 10:19:17 PM 41.8317 -87.0233 48° Northeast 179 206 5,000  Level Chicago Center
Thu 10:20:19 PM 41.8647 -86.9769 46° Northeast 176 203 5,000  Level Chicago Center
Thu 10:21:20 PM 41.8994 -86.9328 43° Northeast 173 199 5,000  Level Chicago Center
Thu 10:22:21 PM 41.9322 -86.8850 47° Northeast 174 200 5,000  Level Chicago Center
Thu 10:23:23 PM 41.9739 -86.8297 45° Northeast 176 203 5,000  Level Chicago Center
Thu 10:24:24 PM 42.0056 -86.7822 48° Northeast 173 199 5,000  Level Chicago Center
Thu 10:25:26 PM 42.0392 -86.7358 46° Northeast 173 199 5,000  Level Chicago Center
Thu 10:26:27 PM 42.0683 -86.6944 46° Northeast 174 200 5,000  Level Chicago Center
Thu 10:27:29 PM 42.1078 -86.6378 47° Northeast 173 199 5,000  Level Chicago Center
Thu 10:28:30 PM 42.1392 -86.5900 48° Northeast 172 198 5,000 -49 Level Chicago Center
Thu 10:29:31 PM 42.1711 -86.5417 48° Northeast 172 198 4,900  Descending Chicago Center
Thu 10:30:33 PM 42.2056 -86.4944 45° Northeast 175 201 5,000 49 Climbing Chicago Center
Thu 10:31:34 PM 42.2386 -86.4481 46° Northeast 173 199 5,000  Level Chicago Center
Thu 10:32:36 PM 42.2733 -86.4011 45° Northeast 175 201 5,000  Level Chicago Center
Thu 10:33:37 PM 42.3128 -86.3483 45° Northeast 176 203 5,000 -49 Level Chicago Center
Thu 10:34:38 PM 42.3472 -86.2986 47° Northeast 178 205 4,900 -49 Descending Chicago Center
Thu 10:35:40 PM 42.3808 -86.2500 47° Northeast 178 205 4,900 49 Level Chicago Center
Thu 10:36:41 PM 42.4128 -86.2031 47° Northeast 173 199 5,000 49 Climbing Chicago Center
Thu 10:37:43 PM 42.4444 -86.1542 49° Northeast 172 198 5,000  Level Chicago Center
Thu 10:38:44 PM 42.4758 -86.1064 48° Northeast 172 198 5,000 -49 Level Chicago Center
Thu 10:39:45 PM 42.5014 -86.0536 57° Northeast 169 194 4,900  Descending Chicago Center
Thu 10:40:47 PM 42.5286 -86.0019 54° Northeast 168 193 5,000 49 Climbing Chicago Center
Thu 10:41:48 PM 42.5633 -85.9431 51° Northeast 169 194 5,000  Level Chicago Center
Thu 10:42:49 PM 42.5992 -85.8986 42° Northeast 173 199 5,000 -49 Level Chicago Center
Thu 10:43:51 PM 42.6314 -85.8539 46° Northeast 170 196 4,900 -244 Descending Chicago Center
Thu 10:44:52 PM 42.6592 -85.7989 56° Northeast 173 199 4,500 -488 Descending Chicago Center
Thu 10:45:54 PM 42.6897 -85.7439 53° Northeast 181 208 3,900 -585 Descending Chicago Center
Thu 10:46:55 PM 42.7217 -85.6922 50° Northeast 181 208 3,300 -689 Descending Chicago Center
Thu 10:47:56 PM 42.7531 -85.6406 50° Northeast 180 207 2,500 -634 Descending Chicago Center
Thu 10:48:58 PM 42.7853 -85.5947 46° Northeast 175 201 2,000 -341 Descending Chicago Center
Thu 10:49:59 PM 42.8236 -85.5456 43° Northeast 166 191 1,800 -295 Descending Chicago Center
Thu 10:51:00 PM 42.8494 -85.5111 44° Northeast 150 173 1,400 -443 Descending Chicago Center
Thu 10:52:01 PM 42.8794 -85.5200 348° North 141 162 900 -492 Descending Chicago Center
Thu 10:54:00 PM 42.8808 -85.5228 56° Northeast  Level Estimated

Login

Don't have an account? Register now (free) for customized features, flight alerts, and more!